Tiempo atmosférico en la estación meteorológica de San Bartolome Tirajana, Cuevas del Pinar, Las Palmas (1220 m.)



Fecha
DESCASC
Temp. máxima en grados centígrados (hora)
DESCASC
Temp. mínima en grados centígrados (hora)
DESCASC
Temp. media en grados centígrados
DESCASC
Racha de viento máxima en m/sg (hora)
DESCASC
Velocidad máxima media en intervalos de 10 minutos(hora)
DESCASC
Precipitaciones diarias en mm
DESCASC
Precipitaciones de 00:00 a 06:00 en mm
DESCASC
Precipitaciones de 06:00 a 12:00 en mm
DESCASC
Precipitaciones de 12:00 a 18:00 en mm
DESCASC
Precipitaciones de 18:00 a 24:00 en mm
DESCASC
17-09-2020 28.7 (17:30) 22.6 (07:30) 25.7 8.89 (16:40) 3.33 (12:20) 0 0 0 0 0
16-09-2020 29.4 (14:30) 23.5 (19:50) 26.4 14.44 (00:10) 8.33 (00:10) 0 0 0 0 0
15-09-2020 30.1 (14:20) 24.1 (00:00) 27.1 19.17 (21:50) 8.89 (23:30) 0 0 0 0 0
14-09-2020 27.9 (13:30) 20.1 (00:00) 24 5.83 (16:50) 3.61 (17:20) 0 0 0 0 0
13-09-2020 24 (18:10) 17.7 (00:00) 20.9 7.22 (02:10) 3.61 (02:10) 0 0 0 0 0
12-09-2020 26 (17:00) 18.7 (00:00) 22.4 6.67 (17:20) 3.89 (21:40) 0 0 0 0 0
11-09-2020 28.7 (16:10) 22.2 (00:00) 25.5 11.94 (01:10) 5 (03:00) 0 0 0 0 0
10-09-2020 31.8 (15:50) 25.5 (00:00) 28.6 14.17 (02:40) 5.56 (02:30) 0 0 0 0 0
09-09-2020 32.8 (12:50) 27.1 (00:00) 29.9 15 (02:50) 6.94 (02:40) 0 0 0 0 0
08-09-2020 33.8 (13:30) 27.8 (00:00) 30.8 13.33 (09:00) 6.39 (07:40) 0 0 0 0 0
07-09-2020 31.6 (15:50) 22.6 (06:20) 27.1 10.83 (15:50) 5 (23:50) 0 0 0 0 0
06-09-2020 30.1 (16:30) 22.5 (00:00) 26.3 6.67 (16:40) 3.33 (15:50) 0 0 0 0 0
05-09-2020 29.9 (16:20) 22.3 (00:00) 26.1 8.33 (00:50) 3.89 (16:40) 0 0 0 0 0
04-09-2020 31.2 (16:10) 21.6 (00:00) 26.4 12.5 (20:20) 4.72 (18:20) 0 0 0 0 0
03-09-2020 28.6 (14:50) 21.1 (00:00) 24.9 6.39 (13:40) 3.61 (16:40) 0 0 0 0 0
02-09-2020 28.8 (12:00) 21.2 (00:00) 25 6.67 (14:30) 3.61 (15:00) 0 0 0 0 0
01-09-2020 27.3 (17:10) 14.5 (00:00) 20.9 5.83 (16:00) 3.06 (03:20) 0 0 0 0 0
31-08-2020 22.5 (15:20) 14 (00:00) 18.3 6.67 (13:30) 4.17 (22:30) 0 0 0 0 0
30-08-2020 22 (16:50) 13.4 (00:00) 17.7 17.22 (07:20) 5.83 (07:20) 0 0 0 0 0
29-08-2020 27.9 (00:00) 17.6 (00:00) 22.8 13.61 (15:40) 6.67 (03:20) 0 0 0 0 0
28-08-2020 33.9 (16:40) 27.9 (00:00) 30.9 16.94 (06:10) 8.89 (07:00) 0 0 0 0 0
27-08-2020 36.1 (14:50) 29.1 (00:00) 32.6 15.28 (14:30) 8.06 (23:30) 0 0 0 0 0
26-08-2020 33.3 (16:00) 28.8 (00:00) 31 14.44 (06:30) 4.72 (05:40) 0 0 0 0 0
25-08-2020 34.9 (17:20) 27.1 (00:00) 31 10.28 (17:30) 3.61 (15:10) 0 0 0 0 0
24-08-2020 34.5 (17:50) 26.8 (00:00) 30.6 10 (13:00) 3.61 (13:00) 0 0 0 0 0
23-08-2020 35.4 (17:10) 29.4 (00:00) 32.4 13.06 (04:10) 7.78 (04:40) 0 0 0 0 0
22-08-2020 36.5 (16:50) 28 (00:00) 32.3 11.67 (23:40) 4.72 (20:20) 0 0 0 0 0
21-08-2020 31.3 (11:00) 24 (00:00) 27.6 7.22 (15:20) 3.61 (13:50) 0 0 0 0 0

Gráficas

Temp. máximas Temp. mínimas Temp. medias Precipitaciones Rachas de viento máximas Velocidades máximas media en intervalos de 10 minutos

Datos horarios

Fecha y hora oficial Temperatura (ºC) Velocidad del viento (km/h) Dirección del viento Racha (km/h) Dirección de racha Precipitación (mm) Presión (hPa) Tendencia (hPa) Humedad (%)
2020-09-19 23:00:00 23.4 4 Sur 5 Sudeste 0 -- -- 38
2020-09-19 22:00:00 23.3 5 Este 10 Este 0 -- -- 50
2020-09-19 21:00:00 24.6 2 Sur 6 Sur 0 -- -- 29
2020-09-19 20:00:00 26.2 0 Calma 9 Sudoeste 0 -- -- 45
2020-09-19 19:00:00 27.8 6 Oeste 12 Oeste 0 -- -- 43
2020-09-19 18:00:00 27.1 5 Oeste 19 Nordeste 0 -- -- 51
2020-09-19 17:00:00 27.6 8 Noroeste 17 Norte 0 -- -- 48
2020-09-19 16:00:00 26.7 10 Norte 23 Nordeste 0 -- -- 51
2020-09-19 15:00:00 27.8 7 Noroeste 20 Noroeste 0 -- -- 46
2020-09-19 14:00:00 26.5 8 Noroeste 22 Norte 0 -- -- 48
2020-09-19 13:00:00 25.3 10 Nordeste 18 Nordeste 0 -- -- 47
2020-09-19 12:00:00 25.8 9 Nordeste 19 Nordeste 0 -- -- 37
2020-09-19 11:00:00 26.5 7 Nordeste 13 Sudoeste 0 -- -- 23
2020-09-19 10:00:00 23.2 0 Calma 4 Nordeste 0 -- -- 26
2020-09-19 09:00:00 22.3 0 Calma 7 Nordeste 0 -- -- 20
2020-09-19 08:00:00 22 0 Calma 7 Norte 0 -- -- 20
2020-09-19 07:00:00 21.1 3 Nordeste 7 Nordeste 0 -- -- 23
2020-09-19 06:00:00 21.2 0 Calma 8 Nordeste 0 -- -- 25
2020-09-19 05:00:00 21.6 0 Calma 6 Sudoeste 0 -- -- 23
2020-09-19 04:00:00 21.5 4 Sur 7 Nordeste 0 -- -- 24
2020-09-19 03:00:00 20.9 2 Este 13 Este 0 -- -- 29
2020-09-19 02:00:00 21 8 Nordeste 15 Nordeste 0 -- -- 43
2020-09-19 01:00:00 21.3 2 Este 13 Nordeste 0 -- -- 26
2020-09-19 00:00:00 19.8 0 Calma 15 Nordeste 0 -- -- 63
2020-09-18 23:00:00 21.1 6 Sur 10 Sudoeste 0 -- -- 37
2020-09-18 22:00:00 21.2 0 Calma 12 Este 0 -- -- 64
2020-09-18 21:00:00 24.4 8 Sur 14 Sudoeste 0 -- -- 23
2020-09-18 20:00:00 23.3 6 Sudoeste 13 Este 0 -- -- 53
2020-09-18 19:00:00 26.9 6 Oeste 13 Oeste 0 -- -- 52
2020-09-18 18:00:00 26.3 6 Oeste 19 Nordeste 0 -- -- 54
2020-09-18 17:00:00 25.6 11 Norte 20 Nordeste 0 -- -- 59
2020-09-18 16:00:00 26.4 8 Noroeste 21 Noroeste 0 -- -- 51
2020-09-18 15:00:00 25 6 Norte 19 Oeste 0 -- -- 60
2020-09-18 14:00:00 25.5 10 Noroeste 17 Oeste 0 -- -- 56
2020-09-18 13:00:00 25.6 6 Noroeste 19 Nordeste 0 -- -- 51
2020-09-18 12:00:00 23.5 13 Nordeste 17 Nordeste 0 -- -- 61
2020-09-18 11:00:00 24.3 5 Oeste 8 Oeste 0 -- -- 41
2020-09-18 10:00:00 21.6 0 Calma 9 Nordeste 0 -- -- 43
2020-09-18 09:00:00 21.9 2 Sudoeste 14 Sudoeste 0 -- -- 38
2020-09-18 08:00:00 22.9 8 Sur 13 Sudoeste 0 -- -- 35
2020-09-18 07:00:00 22.1 0 Calma 10 Sudoeste 0 -- -- 39
2020-09-18 06:00:00 22.8 6 Sur 15 Sur 0 -- -- 37
2020-09-18 05:00:00 23.2 5 Sudoeste 15 Sur 0 -- -- 35
2020-09-18 04:00:00 24.1 9 Sur 13 Sur 0 -- -- 33
2020-09-18 03:00:00 24.1 8 Sudoeste 13 Sudoeste 0 -- -- 32
2020-09-18 02:00:00 24.3 7 Sur 12 Sudoeste 0 -- -- 32
2020-09-18 01:00:00 24.4 4 Este 12 Sudoeste 0 -- -- 37
2020-09-18 00:00:00 24.5 4 Sudoeste 11 Este 0 -- -- 32
2020-09-17 23:00:00 24.3 11 Este 15 Este 0 -- -- 48
2020-09-17 22:00:00 25.9 5 Sudoeste 13 Sudoeste 0 -- -- 29
2020-09-17 21:00:00 26 5 Oeste 13 Oeste 0 -- -- 29
2020-09-17 20:00:00 26.5 8 Oeste 18 Norte 0 -- -- 29
2020-09-17 19:00:00 26.7 9 Oeste 19 Oeste 0 -- -- 35
2020-09-17 18:00:00 27.9 10 Sudoeste 21 Sur 0 -- -- 30
2020-09-17 17:00:00 28.1 12 Oeste 32 Sudoeste 0 -- -- 29
2020-09-17 16:00:00 28.2 11 Sudoeste 21 Sudoeste 0 -- -- 34
2020-09-17 15:00:00 27.3 8 Sudoeste 28 Noroeste 0 -- -- 47
2020-09-17 14:00:00 28.4 10 Oeste 21 Oeste 0 -- -- 40
2020-09-17 13:00:00 28.6 11 Oeste 23 Sudoeste 0 -- -- 31
2020-09-17 12:00:00 27.1 8 Sudoeste 17 Oeste 0 -- -- 33
2020-09-17 11:00:00 26.1 7 Oeste 14 Sudoeste 0 -- -- 35
2020-09-17 10:00:00 24.8 5 Este 10 Sudoeste 0 -- -- 36
2020-09-17 09:00:00 23.9 4 Sudoeste 10 Sudoeste 0 -- -- 37
2020-09-17 08:00:00 22.8 0 Calma 13 Nordeste 0 -- -- 39
2020-09-17 07:00:00 23.3 6 Este 18 Oeste 0 -- -- 39
2020-09-17 06:00:00 23.7 6 Sur 13 Nordeste 0 -- -- 38
2020-09-17 05:00:00 24.9 2 Sudeste 14 Sudoeste 0 -- -- 34
2020-09-17 04:00:00 23.8 7 Sudoeste 17 Sudoeste 0 -- -- 38
2020-09-17 03:00:00 24.3 4 Sudeste 11 Sur 0 -- -- 35
2020-09-17 02:00:00 24.6 8 Sudoeste 13 Sudoeste 0 -- -- 36
2020-09-17 01:00:00 24.8 2 Este 6 Sudeste 0 -- -- 33
2020-09-17 00:00:00 24.6 3 Este 11 Este 0 -- -- 35
2020-09-16 23:00:00 25.2 4 Nordeste 15 Sudoeste 0 -- -- 35
2020-09-16 22:00:00 25.7 7 Norte 23 Nordeste 0 -- -- 34
2020-09-16 21:00:00 24.4 5 Sudeste 14 Sudeste 0 -- -- 38
2020-09-16 20:00:00 23.6 4 Sudeste 11 Noroeste 0 -- -- 44
2020-09-16 19:00:00 24.8 2 Sudoeste 15 Sudoeste 0 -- -- 43
2020-09-16 18:00:00 25.9 5 Sudoeste 17 Noroeste 0 -- -- 40
2020-09-16 17:00:00 27.2 5 Nordeste 19 Sudoeste 0 -- -- 36
2020-09-16 16:00:00 27.5 9 Sudoeste 24 Nordeste 0 -- -- 37
2020-09-16 15:00:00 27.7 10 Sudoeste 18 Noroeste 0 -- -- 38
2020-09-16 14:00:00 29 5 Este 27 Sudoeste 0 -- -- 32
2020-09-16 13:00:00 28.2 8 Nordeste 27 Sudoeste 0 -- -- 32
2020-09-16 12:00:00 24.3 6 Oeste 21 Nordeste 0 -- -- 41
2020-09-16 11:00:00 24.2 5 Sudoeste 23 Sur 0 -- -- 39
2020-09-16 10:00:00 24.4 5 Sudoeste 33 Este 0 -- -- 37
2020-09-16 09:00:00 24.1 9 Sudoeste 23 Nordeste 0 -- -- 37
2020-09-16 08:00:00 23.8 5 Sur 14 Nordeste 0 -- -- 36
2020-09-16 07:00:00 25.3 8 Nordeste 28 Este 0 -- -- 33
2020-09-16 06:00:00 25.1 10 Nordeste 33 Nordeste 0 -- -- 33
2020-09-16 05:00:00 24.8 13 Norte 37 Nordeste 0 -- -- 34
2020-09-16 04:00:00 25.6 7 Nordeste 39 Nordeste 0 -- -- 32
2020-09-16 03:00:00 25.6 15 Norte 41 Nordeste 0 -- -- 32
2020-09-16 02:00:00 26.2 20 Nordeste 41 Nordeste 0 -- -- 31
2020-09-16 01:00:00 26.1 24 Norte 52 Norte 0 -- -- 31
2020-09-16 00:00:00 25.8 31 Nordeste 60 Nordeste 0 -- -- 31
2020-09-15 23:00:00 25.3 30 Norte 58 Nordeste 0 -- -- 31
2020-09-15 22:00:00 25.3 28 Nordeste 69 Nordeste 0 -- -- 32
2020-09-15 21:00:00 25.3 24 Norte 62 Nordeste 0 -- -- 33
2020-09-15 20:00:00 25.4 22 Norte 57 Nordeste 0 -- -- 33
2020-09-15 19:00:00 26.4 19 Nordeste 52 Nordeste 0 -- -- 31
2020-09-15 18:00:00 27.3 16 Norte 37 Nordeste 0 -- -- 28
2020-09-15 17:00:00 28.3 10 Norte 30 Nordeste 0 -- -- 28
2020-09-15 16:00:00 28.1 13 Norte 28 Norte 0 -- -- 28
2020-09-15 15:00:00 28.7 7 Nordeste 18 Oeste 0 -- -- 34
2020-09-15 14:00:00 29.6 6 Noroeste 33 Noroeste 0 -- -- 25
2020-09-15 13:00:00 28.4 9 Noroeste 17 Noroeste 0 -- -- 24
2020-09-15 12:00:00 27.4 11 Nordeste 24 Nordeste 0 -- -- 31
2020-09-15 11:00:00 28 9 Norte 20 Norte 0 -- -- 28
2020-09-15 10:00:00 27.3 5 Noroeste 24 Nordeste 0 -- -- 28
2020-09-15 09:00:00 27.5 12 Nordeste 30 Nordeste 0 -- -- 27
2020-09-15 08:00:00 26.4 3 Este 19 Nordeste 0 -- -- 27
2020-09-15 07:00:00 25.5 2 Este 18 Sudoeste 0 -- -- 29
2020-09-15 06:00:00 26.6 9 Sudoeste 21 Este 0 -- -- 27
2020-09-15 05:00:00 26.2 8 Oeste 21 Oeste 0 -- -- 28
2020-09-15 04:00:00 25.6 5 Sur 17 Noroeste 0 -- -- 29
2020-09-15 03:00:00 26.4 5 Noroeste 19 Noroeste 0 -- -- 28
2020-09-15 02:00:00 26.3 4 Sudoeste 21 Noroeste 0 -- -- 28
2020-09-15 01:00:00 26.4 6 Oeste 23 Oeste 0 -- -- 26
2020-09-15 00:00:00 24.1 5 Sudoeste 19 Noroeste 0 -- -- 24
2020-09-14 23:00:00 25.7 5 Oeste 15 Noroeste 0 -- -- 37
2020-09-14 22:00:00 26.2 6 Sudoeste 18 Oeste 0 -- -- 25
2020-09-14 21:00:00 25.6 4 Sudoeste 8 Sudoeste 0 -- -- 25
2020-09-14 20:00:00 23.3 0 Calma 11 Norte 0 -- -- 63
2020-09-14 19:00:00 25.6 7 Noroeste 14 Nordeste 0 -- -- 56
2020-09-14 18:00:00 26.5 7 Norte 18 Nordeste 0 -- -- 48
2020-09-14 17:00:00 26.2 9 Nordeste 21 Norte 0 -- -- 50
2020-09-14 16:00:00 26.1 9 Nordeste 19 Nordeste 0 -- -- 50
2020-09-14 15:00:00 25.9 9 Nordeste 17 Nordeste 0 -- -- 50
2020-09-14 14:00:00 25.8 10 Nordeste 17 Nordeste 0 -- -- 53
2020-09-14 13:00:00 27.2 6 Norte 19 Sudoeste 0 -- -- 43
2020-09-14 12:00:00 27.2 10 Sudoeste 20 Sudoeste 0 -- -- 24
2020-09-14 11:00:00 25.7 10 Sudoeste 17 Sudoeste 0 -- -- 25
2020-09-14 10:00:00 23.4 9 Sudoeste 17 Sudoeste 0 -- -- 26
2020-09-14 09:00:00 22 9 Sudoeste 16 Sudoeste 0 -- -- 28
2020-09-14 08:00:00 20.6 6 Sudoeste 15 Sur 0 -- -- 26
2020-09-14 07:00:00 20.9 12 Sudoeste 19 Sudoeste 0 -- -- 26
2020-09-14 06:00:00 20.6 7 Sudoeste 11 Sudoeste 0 -- -- 27
2020-09-14 05:00:00 20.8 6 Sudoeste 13 Sudoeste 0 -- -- 28
2020-09-14 04:00:00 21 7 Sudoeste 15 Sudoeste 0 -- -- 28
2020-09-14 03:00:00 20.9 9 Sudoeste 14 Sudoeste 0 -- -- 30
2020-09-14 02:00:00 20.1 8 Sudoeste 13 Sudoeste 0 -- -- 36
2020-09-14 01:00:00 20.3 7 Sudoeste 14 Sudoeste 0 -- -- 37
2020-09-14 00:00:00 20.9 8 Sudoeste 17 Sudoeste 0 -- -- 36
2020-09-13 23:00:00 20.9 9 Sudoeste 15 Sudoeste 0 -- -- 40
2020-09-13 22:00:00 21 7 Sudoeste 12 Sudoeste 0 -- -- 43
2020-09-13 21:00:00 21 6 Sudoeste 12 Sudoeste 0 -- -- 48
2020-09-13 20:00:00 21.7 5 Oeste 14 Sudoeste 0 -- -- 53
2020-09-13 19:00:00 22.7 8 Oeste 16 Sudoeste 0 -- -- 52
2020-09-13 18:00:00 23.9 8 Oeste 18 Sudoeste 0 -- -- 50
2020-09-13 17:00:00 22.2 6 Nordeste 15 Sur 0 -- -- 63
2020-09-13 16:00:00 22.3 9 Oeste 21 Oeste 0 -- -- 61
2020-09-13 15:00:00 21.7 8 Oeste 22 Oeste 0 -- -- 62
2020-09-13 14:00:00 22.6 11 Oeste 23 Oeste 0 -- -- 47
2020-09-13 13:00:00 21.9 7 Oeste 18 Oeste 0 -- -- 47
2020-09-13 12:00:00 21.2 9 Oeste 23 Oeste 0 -- -- 54
2020-09-13 11:00:00 21 8 Oeste 18 Sudoeste 0 -- -- 47
2020-09-13 10:00:00 19.7 7 Sudoeste 15 Sudoeste 0 -- -- 49
2020-09-13 09:00:00 19.1 5 Oeste 12 Oeste 0 -- -- 53
2020-09-13 08:00:00 18.4 6 Sudoeste 17 Sudoeste 0 -- -- 58
2020-09-13 07:00:00 19.3 9 Sudoeste 15 Sudoeste 0 -- -- 49
2020-09-13 06:00:00 18.5 6 Sudoeste 17 Sur 0 -- -- 52
2020-09-13 05:00:00 17.9 8 Sudoeste 17 Oeste 0 -- -- 63
2020-09-13 04:00:00 18.7 10 Oeste 24 Sudoeste 0 -- -- 59
2020-09-13 03:00:00 19.7 12 Sudoeste 26 Sudoeste 0 -- -- 53
2020-09-13 02:00:00 20.8 13 Sudoeste 22 Noroeste 0 -- -- 47
2020-09-13 01:00:00 21.4 10 Sudoeste 25 Sudoeste 0 -- -- 44
2020-09-13 00:00:00 21 12 Sudoeste 21 Sudoeste 0 -- -- 46
2020-09-12 23:00:00 19.4 8 Sur 16 Sudoeste 0 -- -- 56
2020-09-12 22:00:00 20 10 Sudoeste 22 Sur 0 -- -- 55
2020-09-12 21:00:00 20.1 10 Sudoeste 17 Oeste 0 -- -- 58
2020-09-12 20:00:00 19.9 5 Oeste 14 Oeste 0 -- -- 79
2020-09-12 19:00:00 21.4 9 Sudoeste 17 Nordeste 0 -- -- 69
2020-09-12 18:00:00 24 8 Oeste 24 Sudoeste 0 -- -- 62
2020-09-12 17:00:00 26 10 Sudoeste 19 Oeste 0 -- -- 45
2020-09-12 16:00:00 23.8 8 Oeste 19 Norte 0 -- -- 61
2020-09-12 15:00:00 21.8 12 Nordeste 19 Nordeste 0 -- -- 71
2020-09-12 14:00:00 21.3 11 Nordeste 20 Nordeste 0 -- -- 71
2020-09-12 13:00:00 23.7 8 Noroeste 18 Noroeste 0 -- -- 55
2020-09-12 12:00:00 24.1 8 Noroeste 15 Norte 0 -- -- 46
2020-09-12 11:00:00 23.4 6 Oeste 12 Nordeste 0 -- -- 40
2020-09-12 10:00:00 23.2 5 Oeste 13 Nordeste 0 -- -- 34
2020-09-12 09:00:00 20.7 6 Nordeste 10 Nordeste 0 -- -- 43
2020-09-12 08:00:00 20.5 6 Sur 11 Sur 0 -- -- 37
2020-09-12 07:00:00 20.5 4 Sur 14 Nordeste 0 -- -- 41
2020-09-12 06:00:00 21 3 Sur 13 Este 0 -- -- 40
2020-09-12 05:00:00 21 3 Sudeste 8 Sudoeste 0 -- -- 41
2020-09-12 04:00:00 21.8 6 Sur 15 Sudoeste 0 -- -- 40
2020-09-12 03:00:00 22.3 9 Sudoeste 16 Sudoeste 0 -- -- 38
2020-09-12 02:00:00 21.9 5 Sur 9 Sur 0 -- -- 38
2020-09-12 01:00:00 22.5 3 Sur 12 Sur 0 -- -- 37
2020-09-12 00:00:00 23 8 Este 14 Sudeste 0 -- -- 36
2020-09-11 23:00:00 22.4 2 Sur 9 Sur 0 -- -- 36
2020-09-11 22:00:00 22.6 2 Sudoeste 8 Norte 0 -- -- 44
2020-09-11 21:00:00 23 0 Calma 16 Nordeste 0 -- -- 43
2020-09-11 20:00:00 25.4 7 Sudoeste 17 Nordeste 0 -- -- 30
2020-09-11 19:00:00 24.9 9 Nordeste 17 Nordeste 0 -- -- 48
2020-09-11 18:00:00 26.8 10 Nordeste 26 Oeste 0 -- -- 40
2020-09-11 17:00:00 28.2 10 Oeste 25 Noroeste 0 -- -- 23
2020-09-11 16:00:00 28.1 10 Oeste 26 Norte 0 -- -- 23
2020-09-11 15:00:00 25.8 10 Nordeste 19 Nordeste 0 -- -- 50
2020-09-11 14:00:00 25.7 8 Nordeste 21 Nordeste 0 -- -- 50
2020-09-11 13:00:00 25.1 10 Nordeste 20 Nordeste 0 -- -- 39
2020-09-11 12:00:00 26.6 9 Nordeste 23 Sur 0 -- -- 36
2020-09-11 11:00:00 27.3 10 Noroeste 27 Oeste 0 -- -- 27
2020-09-11 10:00:00 25.1 7 Sudoeste 14 Oeste 0 -- -- 24
2020-09-11 09:00:00 23.5 0 Calma 12 Nordeste 0 -- -- 29
2020-09-11 08:00:00 23.6 6 Sudeste 14 Este 0 -- -- 27
2020-09-11 07:00:00 23.7 4 Sur 11 Este 0 -- -- 29
2020-09-11 06:00:00 23.8 4 Este 15 Este 0 -- -- 29
2020-09-11 05:00:00 24.6 5 Norte 15 Nordeste 0 -- -- 29
2020-09-11 04:00:00 25.9 11 Norte 39 Norte 0 -- -- 30
2020-09-11 03:00:00 26 18 Nordeste 39 Nordeste 0 -- -- 31
2020-09-11 02:00:00 25.7 11 Norte 43 Noroeste 0 -- -- 30
2020-09-11 01:00:00 25.5 12 Norte 39 Oeste 0 -- -- 28
2020-09-11 00:00:00 25.5 10 Nordeste 32 Nordeste 0 -- -- 24
2020-09-10 23:00:00 25.8 11 Este 37 Nordeste 0 -- -- 27
2020-09-10 22:00:00 26 13 Nordeste 37 Nordeste 0 -- -- 25
2020-09-10 21:00:00 26.8 10 Este 30 Norte 0 -- -- 21
2020-09-10 20:00:00 28.3 8 Sudeste 30 Oeste 0 -- -- 22
2020-09-10 19:00:00 30.1 10 Oeste 25 Noroeste 0 -- -- 20
2020-09-10 18:00:00 29.6 11 Nordeste 24 Nordeste 0 -- -- 29
2020-09-10 17:00:00 30.2 8 Nordeste 23 Norte 0 -- -- 35
2020-09-10 16:00:00 31.8 7 Oeste 19 Oeste 0 -- -- 35
2020-09-10 15:00:00 31.5 9 Oeste 21 Oeste 0 -- -- 33
2020-09-10 14:00:00 29.2 11 Nordeste 21 Nordeste 0 -- -- 38
2020-09-10 13:00:00 30.6 7 Nordeste 36 Noroeste 0 -- -- 24
2020-09-10 12:00:00 30.7 8 Noroeste 20 Norte 0 -- -- 20
2020-09-10 11:00:00 29.9 3 Oeste 14 Oeste 0 -- -- 20
2020-09-10 10:00:00 27.2 4 Sur 16 Noroeste 0 -- -- 23
2020-09-10 09:00:00 27.4 7 Noroeste 39 Norte 0 -- -- 22
2020-09-10 08:00:00 27.5 18 Nordeste 37 Nordeste 0 -- -- 22
2020-09-10 07:00:00 27.4 8 Este 45 Norte 0 -- -- 21
2020-09-10 06:00:00 27.7 13 Norte 39 Norte 0 -- -- 20
2020-09-10 05:00:00 27.3 16 Nordeste 36 Nordeste 0 -- -- 18
2020-09-10 04:00:00 26.9 14 Nordeste 39 Nordeste 0 -- -- 19
2020-09-10 03:00:00 27.4 19 Norte 51 Nordeste 0 -- -- 19
2020-09-10 02:00:00 27.8 17 Norte 35 Nordeste 0 -- -- 17
2020-09-10 01:00:00 27.6 9 Oeste 28 Nordeste 0 -- -- 19
2020-09-10 00:00:00 27.7 7 Norte 28 Nordeste 0 -- -- 20
2020-09-09 23:00:00 27.3 5 Sudeste 26 Nordeste 0 -- -- 24
2020-09-09 22:00:00 27.2 7 Este 19 Norte 0 -- -- 27
2020-09-09 21:00:00 27.8 0 Calma 18 Nordeste 0 -- -- 25
2020-09-09 20:00:00 29.2 5 Este 22 Nordeste 0 -- -- 24
2020-09-09 19:00:00 30.1 12 Norte 31 Nordeste 0 -- -- 25
2020-09-09 18:00:00 31 13 Noroeste 29 Norte 0 -- -- 22
2020-09-09 17:00:00 31.7 12 Oeste 39 Norte 0 -- -- 19
2020-09-09 16:00:00 31.7 15 Noroeste 43 Norte 0 -- -- 20
2020-09-09 15:00:00 31.8 18 Norte 37 Norte 0 -- -- 19
2020-09-09 14:00:00 32.1 15 Norte 38 Norte 0 -- -- 19
2020-09-09 13:00:00 32.5 9 Noroeste 21 Oeste 0 -- -- 18
2020-09-09 12:00:00 32 9 Oeste 16 Noroeste 0 -- -- 18
2020-09-09 11:00:00 31.3 6 Oeste 18 Oeste 0 -- -- 20
2020-09-09 10:00:00 29.3 7 Sur 28 Nordeste 0 -- -- 23
2020-09-09 09:00:00 28.9 15 Nordeste 45 Nordeste 0 -- -- 25
2020-09-09 08:00:00 28.4 18 Norte 43 Norte 0 -- -- 23
2020-09-09 07:00:00 28.4 20 Nordeste 45 Nordeste 0 -- -- 21
2020-09-09 06:00:00 28.7 19 Norte 41 Noroeste 0 -- -- 19
2020-09-09 05:00:00 28.6 22 Nordeste 48 Nordeste 0 -- -- 19
2020-09-09 04:00:00 28.6 24 Nordeste 49 Nordeste 0 -- -- 17
2020-09-09 03:00:00 27.8 21 Nordeste 54 Nordeste 0 -- -- 14
2020-09-09 02:00:00 27.8 24 Norte 50 Norte 0 -- -- 13
2020-09-09 01:00:00 28.1 19 Norte 39 Nordeste 0 -- -- 14
2020-09-09 00:00:00 28.3 14 Norte 34 Norte 0 -- -- 16
2020-09-08 23:00:00 28.4 10 Noroeste 27 Nordeste 0 -- -- 16
2020-09-08 22:00:00 28.9 10 Este 30 Nordeste 0 -- -- 19
2020-09-08 21:00:00 29.3 11 Nordeste 30 Norte 0 -- -- 19
2020-09-08 20:00:00 30.2 9 Norte 28 Norte 0 -- -- 18
2020-09-08 19:00:00 31.2 17 Nordeste 40 Nordeste 0 -- -- 15
2020-09-08 18:00:00 31.7 20 Norte 39 Norte 0 -- -- 15
2020-09-08 17:00:00 32.4 19 Noroeste 43 Norte 0 -- -- 16
2020-09-08 16:00:00 32.7 17 Norte 44 Nordeste 0 -- -- 15
2020-09-08 15:00:00 32.9 19 Noroeste 37 Noroeste 0 -- -- 16
2020-09-08 14:00:00 32.4 10 Noroeste 37 Noroeste 0 -- -- 16
2020-09-08 13:00:00 33.2 9 Oeste 24 Norte 0 -- -- 17
2020-09-08 12:00:00 32.7 8 Oeste 32 Norte 0 -- -- 16
2020-09-08 11:00:00 30.3 9 Sudoeste 33 Nordeste 0 -- -- 18
2020-09-08 10:00:00 28.8 18 Nordeste 40 Nordeste 0 -- -- 19
2020-09-08 09:00:00 28.2 16 Este 48 Norte 0 -- -- 20
2020-09-08 08:00:00 27.8 20 Norte 46 Norte 0 -- -- 20
2020-09-08 07:00:00 28.2 21 Norte 37 Norte 0 -- -- 21
2020-09-08 06:00:00 28.4 21 Nordeste 40 Nordeste 0 -- -- 22
2020-09-08 05:00:00 28.4 19 Nordeste 39 Norte 0 -- -- 23
2020-09-08 04:00:00 28.5 15 Norte 33 Nordeste 0 -- -- 23
2020-09-08 03:00:00 28.5 12 Norte 33 Norte 0 -- -- 22
2020-09-08 02:00:00 28.7 15 Norte 37 Norte 0 -- -- 22
2020-09-08 01:00:00 28.4 10 Norte 29 Norte 0 -- -- 23
2020-09-08 00:00:00 28.7 15 Norte 33 Nordeste 0 -- -- 26
2020-09-07 23:00:00 28.7 17 Norte 36 Norte 0 -- -- 28
2020-09-07 22:00:00 27.5 8 Nordeste 18 Norte 0 -- -- 34
2020-09-07 21:00:00 27.3 0 Calma 13 Noroeste 0 -- -- 38
2020-09-07 20:00:00 28.7 4 Noroeste 19 Sur 0 -- -- 29
2020-09-07 19:00:00 29.9 5 Sur 13 Sudoeste 0 -- -- 29
2020-09-07 18:00:00 29.7 3 Nordeste 14 Noroeste 0 -- -- 31
2020-09-07 17:00:00 29.5 6 Sudoeste 32 Nordeste 0 -- -- 37
2020-09-07 16:00:00 31.4 12 Nordeste 39 Nordeste 0 -- -- 30
2020-09-07 15:00:00 30.9 9 Norte 27 Este 0 -- -- 31
2020-09-07 14:00:00 29.9 9 Sudoeste 18 Sudoeste 0 -- -- 35
2020-09-07 13:00:00 31 7 Oeste 15 Noroeste 0 -- -- 31
2020-09-07 12:00:00 29.4 4 Sudoeste 13 Oeste 0 -- -- 33
2020-09-07 11:00:00 27.9 5 Norte 13 Noroeste 0 -- -- 34
2020-09-07 10:00:00 26.6 4 Noroeste 10 Este 0 -- -- 37
2020-09-07 09:00:00 24.5 2 Este 10 Sur 0 -- -- 40
2020-09-07 08:00:00 23.9 2 Sudeste 9 Nordeste 0 -- -- 42
2020-09-07 07:00:00 23.4 6 Este 18 Este 0 -- -- 43
2020-09-07 06:00:00 24 6 Norte 17 Nordeste 0 -- -- 37
2020-09-07 05:00:00 24.2 5 Sudeste 15 Sudoeste 0 -- -- 43
2020-09-07 04:00:00 24.6 9 Sudoeste 14 Sudoeste 0 -- -- 35
2020-09-07 03:00:00 24.9 8 Este 17 Nordeste 0 -- -- 34
2020-09-07 02:00:00 23.7 12 Este 17 Este 0 -- -- 42
2020-09-07 01:00:00 25.4 4 Sur 8 Sur 0 -- -- 30
2020-09-07 00:00:00 25.2 4 Este 11 Nordeste 0 -- -- 32
2020-09-06 23:00:00 26 3 Sudeste 11 Sur 0 -- -- 34
2020-09-06 22:00:00 25.4 5 Sur 10 Nordeste 0 -- -- 30
2020-09-06 21:00:00 26.5 4 Sudoeste 14 Sudoeste 0 -- -- 29
2020-09-06 20:00:00 27.3 7 Sudoeste 20 Sudoeste 0 -- -- 29
2020-09-06 19:00:00 28.7 9 Oeste 18 Noroeste 0 -- -- 28
2020-09-06 18:00:00 29.4 10 Oeste 19 Noroeste 0 -- -- 27
2020-09-06 17:00:00 29.4 8 Oeste 24 Noroeste 0 -- -- 28
2020-09-06 16:00:00 29.5 11 Oeste 22 Oeste 0 -- -- 27
2020-09-06 15:00:00 27.6 9 Nordeste 20 Noroeste 0 -- -- 44
2020-09-06 14:00:00 28.9 10 Noroeste 20 Oeste 0 -- -- 29
2020-09-06 13:00:00 28.8 8 Oeste 19 Oeste 0 -- -- 23
2020-09-06 12:00:00 28.1 7 Oeste 17 Noroeste 0 -- -- 18
2020-09-06 11:00:00 27.4 7 Noroeste 12 Oeste 0 -- -- 16
2020-09-06 10:00:00 25.2 6 Oeste 12 Oeste 0 -- -- 14
2020-09-06 09:00:00 23.9 8 Sudoeste 14 Oeste 0 -- -- 13
2020-09-06 08:00:00 23.2 5 Sudoeste 14 Noroeste 0 -- -- 13
2020-09-06 07:00:00 23.1 6 Sur 12 Sudoeste 0 -- -- 13
2020-09-06 06:00:00 22.9 6 Sudoeste 16 Sur 0 -- -- 15
2020-09-06 05:00:00 23.3 6 Sur 13 Oeste 0 -- -- 18
2020-09-06 04:00:00 23.7 5 Sudoeste 19 Sur 0 -- -- 15
2020-09-06 03:00:00 23.2 5 Sudoeste 14 Sudoeste 0 -- -- 14
2020-09-06 02:00:00 23.5 6 Sudoeste 13 Sudoeste 0 -- -- 15
2020-09-06 01:00:00 23.7 6 Sudoeste 12 Sudoeste 0 -- -- 18
2020-09-06 00:00:00 23.4 4 Sudoeste 10 Sudoeste 0 -- -- 30
2020-09-05 23:00:00 23.8 4 Sudoeste 12 Sudoeste 0 -- -- 37
2020-09-05 22:00:00 24 6 Sudoeste 12 Sudoeste 0 -- -- 39
2020-09-05 21:00:00 24.1 6 Sudoeste 13 Sudoeste 0 -- -- 37
2020-09-05 20:00:00 25.6 8 Sudoeste 16 Oeste 0 -- -- 32
2020-09-05 19:00:00 27.6 9 Oeste 20 Noroeste 0 -- -- 31
2020-09-05 18:00:00 28.6 9 Oeste 24 Noroeste 0 -- -- 31
2020-09-05 17:00:00 29.6 10 Oeste 23 Oeste 0 -- -- 28
2020-09-05 16:00:00 29.7 9 Oeste 21 Sudoeste 0 -- -- 26
2020-09-05 15:00:00 27.8 12 Sudoeste 22 Sudoeste 0 -- -- 34
2020-09-05 14:00:00 28.5 10 Sudoeste 21 Oeste 0 -- -- 43
2020-09-05 13:00:00 28.7 7 Oeste 14 Oeste 0 -- -- 32
2020-09-05 12:00:00 26.3 5 Oeste 22 Nordeste 0 -- -- 36
2020-09-05 11:00:00 27.5 6 Oeste 15 Oeste 0 -- -- 30
2020-09-05 10:00:00 24.4 3 Sudoeste 8 Sudoeste 0 -- -- 30
2020-09-05 09:00:00 23 0 Calma 13 Este 0 -- -- 34
2020-09-05 08:00:00 24.6 5 Sur 10 Este 0 -- -- 34
2020-09-05 07:00:00 23.8 6 Sur 10 Sudeste 0 -- -- 39
2020-09-05 06:00:00 22.7 5 Este 15 Nordeste 0 -- -- 32
2020-09-05 05:00:00 25 4 Sur 22 Oeste 0 -- -- 35
2020-09-05 04:00:00 26.1 4 Nordeste 21 Nordeste 0 -- -- 34
2020-09-05 03:00:00 25.9 5 Norte 15 Este 0 -- -- 34
2020-09-05 02:00:00 26.6 9 Nordeste 28 Noroeste 0 -- -- 32
2020-09-05 01:00:00 26.4 11 Noroeste 30 Noroeste 0 -- -- 33
2020-09-05 00:00:00 26.5 9 Oeste 31 Oeste 0 -- -- 30
2020-09-04 23:00:00 26.9 15 Noroeste 37 Norte 0 -- -- 30
2020-09-04 22:00:00 26.7 9 Sudoeste 27 Nordeste 0 -- -- 26
2020-09-04 21:00:00 26.5 11 Nordeste 45 Noroeste 0 -- -- 23
2020-09-04 20:00:00 27.9 13 Noroeste 34 Noroeste 0 -- -- 19
2020-09-04 19:00:00 29 12 Norte 38 Noroeste 0 -- -- 17
2020-09-04 18:00:00 29.5 14 Norte 40 Norte 0 -- -- 17
2020-09-04 17:00:00 31 12 Oeste 30 Noroeste 0 -- -- 17
2020-09-04 16:00:00 31.1 12 Oeste 24 Oeste 0 -- -- 19
2020-09-04 15:00:00 30.3 7 Oeste 21 Noroeste 0 -- -- 24
2020-09-04 14:00:00 29.8 7 Noroeste 25 Norte 0 -- -- 19
2020-09-04 13:00:00 29.4 13 Noroeste 24 Oeste 0 -- -- 17
2020-09-04 12:00:00 28.3 9 Oeste 24 Oeste 0 -- -- 17
2020-09-04 11:00:00 27.1 11 Oeste 19 Oeste 0 -- -- 18
2020-09-04 10:00:00 23.7 2 Sur 11 Sudoeste 0 -- -- 21
2020-09-04 09:00:00 22.9 5 Sur 12 Nordeste 0 -- -- 22
2020-09-04 08:00:00 23.3 4 Oeste 12 Nordeste 0 -- -- 22
2020-09-04 07:00:00 22.1 0 Calma 15 Sur 0 -- -- 27
2020-09-04 06:00:00 22 3 Sur 13 Sur 0 -- -- 23
2020-09-04 05:00:00 22.4 5 Sur 10 Sur 0 -- -- 21
2020-09-04 04:00:00 22.1 0 Calma 9 Este 0 -- -- 22
2020-09-04 03:00:00 22.1 3 Sur 11 Nordeste 0 -- -- 24
2020-09-04 02:00:00 22.2 3 Este 11 Este 0 -- -- 32
2020-09-04 01:00:00 22.2 4 Sudeste 8 Sur 0 -- -- 25
2020-09-04 00:00:00 21.6 4 Sur 6 Sudeste 0 -- -- 32
2020-09-03 23:00:00 21.3 0 Calma 13 Este 0 -- -- 54
2020-09-03 22:00:00 22.1 3 Sur 8 Sur 0 -- -- 37
2020-09-03 21:00:00 22.9 0 Calma 9 Nordeste 0 -- -- 58
2020-09-03 20:00:00 24.8 5 Noroeste 12 Oeste 0 -- -- 54
2020-09-03 19:00:00 26 8 Norte 19 Sudoeste 0 -- -- 54
2020-09-03 18:00:00 26.8 10 Noroeste 19 Noroeste 0 -- -- 47
2020-09-03 17:00:00 25.9 8 Norte 22 Norte 0 -- -- 55
2020-09-03 16:00:00 26.6 8 Norte 21 Norte 0 -- -- 52
2020-09-03 15:00:00 28.3 6 Sudoeste 19 Nordeste 0 -- -- 45
2020-09-03 14:00:00 26.5 10 Norte 23 Norte 0 -- -- 46
2020-09-03 13:00:00 27.1 10 Norte 20 Norte 0 -- -- 35
2020-09-03 12:00:00 27 8 Nordeste 15 Nordeste 0 -- -- 30
2020-09-03 11:00:00 27 4 Oeste 9 Noroeste 0 -- -- 19
2020-09-03 10:00:00 23.5 0 Calma 12 Nordeste 0 -- -- 21
2020-09-03 09:00:00 23 6 Sur 11 Sudeste 0 -- -- 14
2020-09-03 08:00:00 23.1 4 Este 8 Nordeste 0 -- -- 16
2020-09-03 07:00:00 22.6 0 Calma 9 Este 0 -- -- 14
2020-09-03 06:00:00 22.7 0 Calma 7 Sur 0 -- -- 17
2020-09-03 05:00:00 22.5 3 Sur 10 Nordeste 0 -- -- 22
2020-09-03 04:00:00 22.2 0 Calma -- -- 0 -- -- 24
2020-09-03 03:00:00 21.8 0 Calma 7 Este 0 -- -- 33
2020-09-03 02:00:00 22.1 7 Este 12 Este 0 -- -- 45
2020-09-03 01:00:00 21.1 0 Calma 11 Nordeste 0 -- -- 53
2020-09-03 00:00:00 21.3 5 Nordeste 9 Nordeste 0 -- -- 47
2020-09-02 23:00:00 21.6 5 Este 8 Este 0 -- -- 61
2020-09-02 22:00:00 21.9 2 Sur 11 Nordeste 0 -- -- 52
2020-09-02 21:00:00 21.9 0 Calma 9 Noroeste 0 -- -- 70
2020-09-02 20:00:00 23.7 6 Noroeste 15 Nordeste 0 -- -- 66
2020-09-02 19:00:00 24.3 9 Nordeste 17 Nordeste 0 -- -- 61
2020-09-02 18:00:00 25.6 9 Norte 23 Norte 0 -- -- 55
2020-09-02 17:00:00 26 10 Nordeste 21 Nordeste 0 -- -- 56
2020-09-02 16:00:00 25.8 12 Nordeste 23 Norte 0 -- -- 57
2020-09-02 15:00:00 26.7 13 Nordeste 24 Nordeste 0 -- -- 51
2020-09-02 14:00:00 28.2 8 Noroeste 20 Nordeste 0 -- -- 33
2020-09-02 13:00:00 26.9 9 Nordeste 18 Nordeste 0 -- -- 34
2020-09-02 12:00:00 28.8 5 Noroeste 12 Oeste 0 -- -- 13
2020-09-02 11:00:00 27.4 6 Sudoeste 10 Noroeste 0 -- -- 13
2020-09-02 10:00:00 23.8 5 Sudoeste 10 Sur 0 -- -- 14
2020-09-02 09:00:00 22.1 7 Sur 10 Sur 0 -- -- 13
2020-09-02 08:00:00 21.7 7 Sur 12 Sur 0 -- -- 14
2020-09-02 07:00:00 23 6 Sur 11 Sur 0 -- -- 22
2020-09-02 06:00:00 22.9 5 Sur 11 Sur 0 -- -- 13
2020-09-02 05:00:00 22.9 5 Sur 8 Sur 0 -- -- 12
2020-09-02 04:00:00 23.2 5 Sur 8 Sur 0 -- -- 11
2020-09-02 03:00:00 23 6 Sur 9 Sur 0 -- -- 10
2020-09-02 02:00:00 22.6 7 Sur 10 Sur 0 -- -- 8
2020-09-02 01:00:00 22.7 3 Este 9 Este 0 -- -- 11
2020-09-02 00:00:00 22.5 2 Sudeste 11 Nordeste 0 -- -- 20
2020-09-01 23:00:00 22.4 9 Este 14 Nordeste 0 -- -- 44
2020-09-01 22:00:00 23.1 9 Nordeste 14 Nordeste 0 -- -- 37
2020-09-01 21:00:00 22.8 7 Sur 13 Sur 0 -- -- 18
2020-09-01 20:00:00 23.8 7 Sudoeste 14 Sudoeste 0 -- -- 48
2020-09-01 19:00:00 24.7 8 Oeste 17 Oeste 0 -- -- 56
2020-09-01 18:00:00 26.2 9 Oeste 20 Oeste 0 -- -- 45
2020-09-01 17:00:00 27.1 9 Oeste 21 Sudoeste 0 -- -- 26
2020-09-01 16:00:00 26.4 10 Oeste 21 Sudoeste 0 -- -- 32
2020-09-01 15:00:00 25.6 8 Oeste 20 Oeste 0 -- -- 30
2020-09-01 14:00:00 24.7 9 Noroeste 18 Noroeste 0 -- -- 47
2020-09-01 13:00:00 24.4 9 Noroeste 16 Oeste 0 -- -- 42
2020-09-01 12:00:00 24.6 7 Noroeste 13 Oeste 0 -- -- 37
2020-09-01 11:00:00 24 6 Oeste 14 Noroeste 0 -- -- 24
2020-09-01 10:00:00 21.3 3 Sudoeste 7 Sudeste 0 -- -- 24
2020-09-01 09:00:00 19.6 5 Sur 9 Sur 0 -- -- 26
2020-09-01 08:00:00 19.5 5 Sur 8 Sur 0 -- -- 26
2020-09-01 07:00:00 19.2 5 Sur 8 Sur 0 -- -- 27
2020-09-01 06:00:00 15.5 0 Calma -- -- 0 -- -- 41
2020-09-01 05:00:00 15.5 0 Calma 15 Este 0 -- -- 56
2020-09-01 04:00:00 14.9 0 Calma 17 Nordeste 0 -- -- 72
2020-09-01 03:00:00 14.8 2 Sudeste 16 Nordeste 0 -- -- 70
2020-09-01 02:00:00 15 0 Calma 9 Nordeste 0 -- -- 70
2020-09-01 01:00:00 15.3 0 Calma 5 Sur 0 -- -- 71
2020-09-01 00:00:00 16 0 Calma 17 Este 0 -- -- 66
2020-08-31 23:00:00 14.2 12 Este 22 Nordeste 0 -- -- 94
2020-08-31 22:00:00 14.6 10 Este 17 Nordeste 0 -- -- 92
2020-08-31 21:00:00 16.1 0 Calma 13 Sudoeste 0 -- -- 81
2020-08-31 20:00:00 19.6 6 Oeste 14 Sudoeste 0 -- -- 64
2020-08-31 19:00:00 21 7 Oeste 18 Oeste 0 -- -- 61
2020-08-31 18:00:00 20.7 9 Norte 22 Nordeste 0 -- -- 62
2020-08-31 17:00:00 21 10 Nordeste 24 Nordeste 0 -- -- 59
2020-08-31 16:00:00 22.1 7 Norte 24 Nordeste 0 -- -- 54
2020-08-31 15:00:00 22 8 Nordeste 23 Nordeste 0 -- -- 53
2020-08-31 14:00:00 22 10 Norte 24 Nordeste 0 -- -- 51
2020-08-31 13:00:00 21.4 8 Noroeste 15 Noroeste 0 -- -- 45
2020-08-31 12:00:00 20.5 6 Noroeste 15 Oeste 0 -- -- 43
2020-08-31 11:00:00 19.7 7 Noroeste 13 Noroeste 0 -- -- 36
2020-08-31 10:00:00 17.6 0 Calma 12 Nordeste 0 -- -- 28
2020-08-31 09:00:00 16.3 0 Calma 14 Nordeste 0 -- -- 27
2020-08-31 08:00:00 16.2 0 Calma 7 Sudeste 0 -- -- 24
2020-08-31 07:00:00 14.7 3 Este 9 Nordeste 0 -- -- 28
2020-08-31 06:00:00 14.7 0 Calma 14 Nordeste 0 -- -- 36
2020-08-31 05:00:00 16 12 Nordeste 17 Nordeste 0 -- -- 32
2020-08-31 04:00:00 14.5 0 Calma 9 Nordeste 0 -- -- 44
2020-08-31 03:00:00 14.7 3 Sudeste 6 Sur 0 -- -- 41
2020-08-31 02:00:00 14.1 3 Sur 10 Nordeste 0 -- -- 53
2020-08-31 01:00:00 14.7 0 Calma 9 Nordeste 0 -- -- 58
2020-08-31 00:00:00 14 0 Calma 6 Nordeste 0 -- -- 61
2020-08-30 23:00:00 14.7 4 Sudoeste 6 Oeste 0 -- -- 79
2020-08-30 22:00:00 15.2 2 Sudoeste 11 Sudoeste 0 -- -- 83
2020-08-30 21:00:00 16 7 Oeste 12 Sudoeste 0 -- -- 80
2020-08-30 20:00:00 18.7 6 Este 15 Nordeste 0 -- -- 68
2020-08-30 19:00:00 20.8 8 Oeste 20 Noroeste 0 -- -- 47
2020-08-30 18:00:00 21 12 Oeste 22 Oeste 0 -- -- 54
2020-08-30 17:00:00 21.7 10 Sudoeste 21 Sudoeste 0 -- -- 57
2020-08-30 16:00:00 21.3 8 Sudoeste 20 Sudoeste 0 -- -- 56
2020-08-30 15:00:00 21.2 7 Sudoeste 26 Norte 0 -- -- 54
2020-08-30 14:00:00 19.7 10 Sudoeste 22 Sudoeste 0 -- -- 65
2020-08-30 13:00:00 18.3 10 Sur 24 Sudoeste 0 -- -- 71
2020-08-30 12:00:00 18.4 10 Sudoeste 44 Nordeste 0 -- -- 69
2020-08-30 11:00:00 16.4 17 Norte 43 Nordeste 0 -- -- 72
2020-08-30 10:00:00 15.6 5 Oeste 19 Este 0 -- -- 80
2020-08-30 09:00:00 14.7 8 Norte 33 Nordeste 0 -- -- 77
2020-08-30 08:00:00 14.7 15 Nordeste 62 Nordeste 0 -- -- 63
2020-08-30 07:00:00 14.4 18 Norte 46 Nordeste 0 -- -- 75
2020-08-30 06:00:00 13.6 3 Oeste 38 Nordeste 0 -- -- 75
2020-08-30 05:00:00 14.9 11 Este 36 Nordeste 0 -- -- 79
2020-08-30 04:00:00 14.7 4 Sur 15 Norte 0 -- -- 87
2020-08-30 03:00:00 14.9 7 Este 15 Norte 0 -- -- 91
2020-08-30 02:00:00 15.6 5 Nordeste 17 Este 0 -- -- 86
2020-08-30 01:00:00 16.2 6 Nordeste 14 Nordeste 0 -- -- 79
2020-08-30 00:00:00 17.9 8 Este 29 Nordeste 0 -- -- 59
2020-08-29 23:00:00 18.8 11 Nordeste 43 Nordeste 0 -- -- 50
2020-08-29 22:00:00 20 11 Nordeste 38 Nordeste 0 -- -- 46
2020-08-29 21:00:00 20.4 13 Norte 43 Norte 0 -- -- 40
2020-08-29 20:00:00 21.2 7 Sur 27 Sudoeste 0 -- -- 48
2020-08-29 19:00:00 22.8 10 Sudoeste 25 Este 0 -- -- 53
2020-08-29 18:00:00 24.5 8 Noroeste 42 Nordeste 0 -- -- 46
2020-08-29 17:00:00 23.4 18 Norte 41 Nordeste 0 -- -- 38
2020-08-29 16:00:00 24.5 14 Noroeste 49 Norte 0 -- -- 32
2020-08-29 15:00:00 25.5 10 Noroeste 35 Noroeste 0 -- -- 24
2020-08-29 14:00:00 25.8 10 Sudoeste 27 Sur 0 -- -- 28
2020-08-29 13:00:00 27.1 9 Oeste 33 Oeste 0 -- -- 15
2020-08-29 12:00:00 26.1 8 Norte 45 Norte 0 -- -- 15
2020-08-29 11:00:00 25.5 13 Norte 41 Nordeste 0 -- -- 14
2020-08-29 10:00:00 24.6 17 Nordeste 40 Nordeste 0 -- -- 12
2020-08-29 09:00:00 24.2 17 Nordeste 41 Nordeste 0 -- -- 14
2020-08-29 08:00:00 25 12 Nordeste 36 Nordeste 0 -- -- 12
2020-08-29 07:00:00 25.1 16 Nordeste 46 Noroeste 0 -- -- 13
2020-08-29 06:00:00 26.1 18 Nordeste 43 Nordeste 0 -- -- 13
2020-08-29 05:00:00 26.8 17 Nordeste 40 Norte 0 -- -- 12
2020-08-29 04:00:00 27.5 22 Nordeste 45 Noroeste 0 -- -- 13
2020-08-29 03:00:00 27.5 21 Norte 42 Nordeste 0 -- -- 12
2020-08-29 02:00:00 27.8 23 Nordeste 42 Nordeste 0 -- -- 12
2020-08-29 01:00:00 27.7 23 Nordeste 44 Norte 0 -- -- 11
2020-08-29 00:00:00 27.9 20 Norte 39 Noroeste 0 -- -- 11
2020-08-28 23:00:00 28.8 19 Norte 32 Norte 0 -- -- 12
2020-08-28 22:00:00 29.5 17 Norte 35 Nordeste 0 -- -- 13
2020-08-28 21:00:00 29.7 14 Norte 30 Nordeste 0 -- -- 12
2020-08-28 20:00:00 30.6 13 Nordeste 29 Nordeste 0 -- -- 11
2020-08-28 19:00:00 32 14 Nordeste 31 Nordeste 0 -- -- 11
2020-08-28 18:00:00 33.6 14 Norte 42 Nordeste 0 -- -- 11
2020-08-28 17:00:00 33.6 17 Norte 49 Nordeste 0 -- -- 12
2020-08-28 16:00:00 33.6 24 Norte 48 Norte 0 -- -- 13
2020-08-28 15:00:00 33.6 19 Norte 48 Norte 0 -- -- 14
2020-08-28 14:00:00 33.1 17 Norte 43 Norte 0 -- -- 15
2020-08-28 13:00:00 33.3 14 Noroeste 36 Norte 0 -- -- 18
2020-08-28 12:00:00 32.5 14 Norte 32 Nordeste 0 -- -- 18
2020-08-28 11:00:00 32.1 15 Sudeste 47 Nordeste 0 -- -- 18
2020-08-28 10:00:00 30.8 24 Norte 53 Nordeste 0 -- -- 19
2020-08-28 09:00:00 30.1 30 Norte 55 Nordeste 0 -- -- 19
2020-08-28 08:00:00 29.9 28 Norte 57 Norte 0 -- -- 19
2020-08-28 07:00:00 30.1 32 Norte 61 Norte 0 -- -- 18
2020-08-28 06:00:00 30.5 31 Norte 58 Norte 0 -- -- 17
2020-08-28 05:00:00 30.8 29 Norte 57 Norte 0 -- -- 17
2020-08-28 04:00:00 30.9 25 Norte 55 Norte 0 -- -- 17
2020-08-28 03:00:00 31.2 27 Norte 51 Norte 0 -- -- 17
2020-08-28 02:00:00 31.4 26 Norte 50 Norte 0 -- -- 17
2020-08-28 01:00:00 31.6 24 Norte 54 Nordeste 0 -- -- 17
2020-08-28 00:00:00 31.8 24 Norte 50 Norte 0 -- -- 18
2020-08-27 23:00:00 32.1 27 Norte 52 Norte 0 -- -- 18
2020-08-27 22:00:00 32.1 24 Norte 50 Nordeste 0 -- -- 18
2020-08-27 21:00:00 32.2 20 Norte 42 Norte 0 -- -- 18
2020-08-27 20:00:00 32.5 20 Norte 45 Nordeste 0 -- -- 18
2020-08-27 19:00:00 33.3 27 Nordeste 46 Nordeste 0 -- -- 18
2020-08-27 18:00:00 34.5 20 Norte 43 Norte 0 -- -- 17
2020-08-27 17:00:00 36 11 Oeste 43 Nordeste 0 -- -- 15
2020-08-27 16:00:00 35.5 18 Noroeste 47 Nordeste 0 -- -- 15
2020-08-27 15:00:00 36 20 Noroeste 55 Nordeste 0 -- -- 14
2020-08-27 14:00:00 35.8 15 Noroeste 51 Nordeste 0 -- -- 15
2020-08-27 13:00:00 34.8 25 Norte 47 Norte 0 -- -- 18
2020-08-27 12:00:00 35.2 9 Noroeste 37 Nordeste 0 -- -- 19
2020-08-27 11:00:00 33.9 12 Noroeste 29 Norte 0 -- -- 20
2020-08-27 10:00:00 32.4 16 Norte 30 Norte 0 -- -- 23
2020-08-27 09:00:00 31.4 12 Norte 28 Norte 0 -- -- 23
2020-08-27 08:00:00 29.5 3 Sudeste 9 Este 0 -- -- 27
2020-08-27 07:00:00 29.3 0 Calma 6 Este 0 -- -- 31
2020-08-27 06:00:00 29.2 3 Este 6 Este 0 -- -- 32
2020-08-27 05:00:00 29.3 0 Calma -- -- 0 -- -- 33
2020-08-27 04:00:00 29.4 0 Calma -- -- 0 -- -- 32
2020-08-27 03:00:00 30 0 Calma -- -- 0 -- -- 31
2020-08-27 02:00:00 29.9 0 Calma 5 Sudeste 0 -- -- 31
2020-08-27 01:00:00 29.7 3 Sudeste 8 Nordeste 0 -- -- 32
2020-08-27 00:00:00 30.2 4 Sudeste 8 Sudeste 0 -- -- 31
2020-08-26 23:00:00 29.6 0 Calma 4 Sudeste 0 -- -- 32
2020-08-26 22:00:00 29.1 3 Sudeste 4 Sudeste 0 -- -- 33
2020-08-26 21:00:00 29.8 0 Calma 7 Oeste 0 -- -- 31
2020-08-26 20:00:00 30.9 5 Oeste 15 Sudoeste 0 -- -- 31
2020-08-26 19:00:00 31.8 9 Sudoeste 23 Sudoeste 0 -- -- 32
2020-08-26 18:00:00 32.5 12 Sudoeste 21 Sudoeste 0 -- -- 31
2020-08-26 17:00:00 33.1 11 Sudoeste 25 Sudoeste 0 -- -- 30
2020-08-26 16:00:00 33.3 9 Sudoeste 28 Sudoeste 0 -- -- 30
2020-08-26 15:00:00 32.7 12 Sudoeste 28 Sudoeste 0 -- -- 31
2020-08-26 14:00:00 32.6 10 Sudoeste 24 Sudoeste 0 -- -- 31
2020-08-26 13:00:00 32.4 8 Oeste 22 Sudeste 0 -- -- 31
2020-08-26 12:00:00 31.7 8 Este 24 Sudoeste 0 -- -- 32
2020-08-26 11:00:00 30.9 8 Sudoeste 27 Nordeste 0 -- -- 32
2020-08-26 10:00:00 29.4 7 Sudeste 24 Este 0 -- -- 32
2020-08-26 09:00:00 28.8 6 Este 30 Sudoeste 0 -- -- 31
2020-08-26 08:00:00 29.7 11 Sudoeste 36 Nordeste 0 -- -- 26
2020-08-26 07:00:00 29.8 11 Sur 52 Este 0 -- -- 23
2020-08-26 06:00:00 30.2 16 Sur 46 Sur 0 -- -- 18
2020-08-26 05:00:00 30.4 12 Sur 32 Nordeste 0 -- -- 16
2020-08-26 04:00:00 31 8 Sur 31 Sudeste 0 -- -- 17
2020-08-26 03:00:00 31.2 8 Sur 20 Sur 0 -- -- 16
2020-08-26 02:00:00 30.9 8 Sur 13 Sur 0 -- -- 16
2020-08-26 01:00:00 30.9 6 Sur 12 Norte 0 -- -- 16
2020-08-26 00:00:00 32.2 7 Noroeste 15 Noroeste 0 -- -- 15
2020-08-25 23:00:00 31.2 3 Sur 9 Sur 0 -- -- 15
2020-08-25 22:00:00 31.4 5 Sur 10 Sur 0 -- -- 14
2020-08-25 21:00:00 31.8 5 Sur 13 Sur 0 -- -- 14
2020-08-25 20:00:00 33.1 6 Sudoeste 17 Sur 0 -- -- 13
2020-08-25 19:00:00 34.1 9 Sudoeste 21 Norte 0 -- -- 13
2020-08-25 18:00:00 34.4 9 Noroeste 37 Nordeste 0 -- -- 15
2020-08-25 17:00:00 34.3 12 Noroeste 30 Nordeste 0 -- -- 15
2020-08-25 16:00:00 34.7 10 Oeste 30 Nordeste 0 -- -- 20
2020-08-25 15:00:00 34.2 9 Norte 31 Nordeste 0 -- -- 20
2020-08-25 14:00:00 32.3 11 Este 27 Nordeste 0 -- -- 22
2020-08-25 13:00:00 33.9 11 Oeste 24 Este 0 -- -- 17
2020-08-25 12:00:00 33.7 10 Oeste 22 Oeste 0 -- -- 18
2020-08-25 11:00:00 31.6 6 Oeste 35 Nordeste 0 -- -- 19
2020-08-25 10:00:00 30.3 7 Sur 34 Este 0 -- -- 21
2020-08-25 09:00:00 29.1 6 Nordeste 22 Sudeste 0 -- -- 23
2020-08-25 08:00:00 28.3 5 Sudeste 21 Este 0 -- -- 23
2020-08-25 07:00:00 29.5 9 Sudeste 21 Este 0 -- -- 21
2020-08-25 06:00:00 28.3 8 Este 15 Nordeste 0 -- -- 21
2020-08-25 05:00:00 28.8 7 Este 11 Nordeste 0 -- -- 22
2020-08-25 04:00:00 29.5 0 Calma 6 Este 0 -- -- 21
2020-08-25 03:00:00 29.6 6 Este 9 Nordeste 0 -- -- 21
2020-08-25 02:00:00 29.8 4 Este 9 Nordeste 0 -- -- 21
2020-08-25 01:00:00 29.8 2 Este 7 Sudeste 0 -- -- 20
2020-08-25 00:00:00 29.9 6 Sudeste 8 Sudeste 0 -- -- 20
2020-08-24 23:00:00 29.5 3 Este 7 Sudeste 0 -- -- 21
2020-08-24 22:00:00 29.6 0 Calma 5 Este 0 -- -- 21
2020-08-24 21:00:00 30.6 2 Sudeste 5 Sudoeste 0 -- -- 23
2020-08-24 20:00:00 32.7 4 Oeste 13 Nordeste 0 -- -- 23
2020-08-24 19:00:00 33.4 7 Norte 19 Sudoeste 0 -- -- 17
2020-08-24 18:00:00 33.7 11 Norte 23 Norte 0 -- -- 18
2020-08-24 17:00:00 34 10 Norte 30 Norte 0 -- -- 17
2020-08-24 16:00:00 34.1 12 Nordeste 25 Nordeste 0 -- -- 16
2020-08-24 15:00:00 34 12 Oeste 33 Nordeste 0 -- -- 15
2020-08-24 14:00:00 34 10 Noroeste 30 Sudoeste 0 -- -- 14
2020-08-24 13:00:00 32.7 13 Norte 36 Norte 0 -- -- 14
2020-08-24 12:00:00 32.3 6 Este 17 Nordeste 0 -- -- 13
2020-08-24 11:00:00 31.5 8 Norte 18 Norte 0 -- -- 14
2020-08-24 10:00:00 30.7 5 Noroeste 13 Norte 0 -- -- 15
2020-08-24 09:00:00 27.1 0 Calma -- -- 0 -- -- 17
2020-08-24 08:00:00 27.1 0 Calma 6 Sudeste 0 -- -- 17
2020-08-24 07:00:00 27 0 Calma -- -- 0 -- -- 17
2020-08-24 06:00:00 27.5 0 Calma 8 Este 0 -- -- 14
2020-08-24 05:00:00 27.1 0 Calma 6 Este 0 -- -- 15
2020-08-24 04:00:00 27.3 5 Este 8 Este 0 -- -- 15
2020-08-24 03:00:00 27.8 6 Nordeste 9 Este 0 -- -- 15
2020-08-24 02:00:00 27.7 4 Este 7 Este 0 -- -- 15
2020-08-24 01:00:00 28.5 0 Calma 17 Nordeste 0 -- -- 15
2020-08-24 00:00:00 29.4 5 Sudeste 15 Nordeste 0 -- -- 14
2020-08-23 23:00:00 30.8 6 Nordeste 17 Nordeste 0 -- -- 14
2020-08-23 22:00:00 31.2 9 Nordeste 21 Norte 0 -- -- 14
2020-08-23 21:00:00 30.9 9 Nordeste 22 Nordeste 0 -- -- 14
2020-08-23 20:00:00 32 8 Nordeste 32 Nordeste 0 -- -- 13
2020-08-23 19:00:00 33.2 10 Nordeste 27 Norte 0 -- -- 14
2020-08-23 18:00:00 33.8 15 Noroeste 27 Noroeste 0 -- -- 13
2020-08-23 17:00:00 35.1 10 Nordeste 22 Norte 0 -- -- 13
2020-08-23 16:00:00 34.6 14 Nordeste 27 Norte 0 -- -- 13
2020-08-23 15:00:00 35.2 10 Norte 23 Noroeste 0 -- -- 13
2020-08-23 14:00:00 34.6 12 Noroeste 32 Norte 0 -- -- 13
2020-08-23 13:00:00 34.1 14 Noroeste 29 Norte 0 -- -- 13
2020-08-23 12:00:00 34.9 8 Oeste 23 Norte 0 -- -- 13
2020-08-23 11:00:00 33.2 12 Norte 31 Nordeste 0 -- -- 14
2020-08-23 10:00:00 32.5 13 Nordeste 28 Nordeste 0 -- -- 14
2020-08-23 09:00:00 30.9 7 Nordeste 24 Nordeste 0 -- -- 15
2020-08-23 08:00:00 30.1 9 Nordeste 29 Nordeste 0 -- -- 16
2020-08-23 07:00:00 30.2 9 Nordeste 32 Norte 0 -- -- 16
2020-08-23 06:00:00 30.5 12 Nordeste 39 Nordeste 0 -- -- 16
2020-08-23 05:00:00 31.1 28 Nordeste 47 Nordeste 0 -- -- 16
2020-08-23 04:00:00 30.9 27 Nordeste 46 Nordeste 0 -- -- 16
2020-08-23 03:00:00 31 15 Nordeste 43 Nordeste 0 -- -- 17
2020-08-23 02:00:00 31.1 12 Nordeste 42 Nordeste 0 -- -- 17
2020-08-23 01:00:00 31.4 22 Nordeste 46 Nordeste 0 -- -- 17
2020-08-23 00:00:00 31.6 15 Norte 42 Norte 0 -- -- 19
2020-08-22 23:00:00 31.6 10 Nordeste 37 Norte 0 -- -- 19
2020-08-22 22:00:00 32.1 15 Norte 36 Nordeste 0 -- -- 18
2020-08-22 21:00:00 32.2 15 Nordeste 34 Nordeste 0 -- -- 19
2020-08-22 20:00:00 32.7 15 Nordeste 37 Nordeste 0 -- -- 20
2020-08-22 19:00:00 34.1 11 Norte 28 Este 0 -- -- 19
2020-08-22 18:00:00 35.6 9 Noroeste 26 Noroeste 0 -- -- 17
2020-08-22 17:00:00 36.1 10 Noroeste 21 Sudoeste 0 -- -- 17
2020-08-22 16:00:00 35.8 9 Sudoeste 28 Sudoeste 0 -- -- 18
2020-08-22 15:00:00 36.3 9 Noroeste 21 Oeste 0 -- -- 17
2020-08-22 14:00:00 36 5 Noroeste 29 Norte 0 -- -- 17
2020-08-22 13:00:00 34.3 8 Oeste 25 Norte 0 -- -- 17
2020-08-22 12:00:00 33.4 10 Nordeste 24 Norte 0 -- -- 16
2020-08-22 11:00:00 32.2 9 Este 24 Este 0 -- -- 15
2020-08-22 10:00:00 31.1 9 Este 21 Este 0 -- -- 13
2020-08-22 09:00:00 29.5 7 Este 15 Este 0 -- -- 15
2020-08-22 08:00:00 29.1 7 Este 13 Este 0 -- -- 19
2020-08-22 07:00:00 28.7 5 Este 10 Nordeste 0 -- -- 22
2020-08-22 06:00:00 29.3 3 Este 13 Nordeste 0 -- -- 22
2020-08-22 05:00:00 30.1 8 Nordeste 16 Nordeste 0 -- -- 22
2020-08-22 04:00:00 29.4 4 Sudeste 12 Nordeste 0 -- -- 22
2020-08-22 03:00:00 29.9 6 Nordeste 12 Nordeste 0 -- -- 21
2020-08-22 02:00:00 29.4 5 Este 10 Nordeste 0 -- -- 19
2020-08-22 01:00:00 29.4 4 Sudeste 11 Nordeste 0 -- -- 18
2020-08-22 00:00:00 28 5 Sur 14 Sur 0 -- -- 17
2020-08-21 23:00:00 28.1 8 Sudoeste 17 Sudoeste 0 -- -- 14
2020-08-21 22:00:00 27.6 6 Sudoeste 13 Oeste 0 -- -- 12
2020-08-21 21:00:00 27.7 4 Sur 7 Sur 0 -- -- 22
2020-08-21 20:00:00 28.2 5 Sudoeste 13 Noroeste 0 -- -- 32
2020-08-21 19:00:00 30.9 8 Sudoeste 20 Sudoeste 0 -- -- 15
2020-08-21 18:00:00 30 12 Nordeste 21 Nordeste 0 -- -- 25
2020-08-21 17:00:00 29.8 7 Este 19 Nordeste 0 -- -- 20
2020-08-21 16:00:00 30 10 Nordeste 26 Nordeste 0 -- -- 19
2020-08-21 15:00:00 30.2 9 Nordeste 25 Norte 0 -- -- 21
2020-08-21 14:00:00 28.5 7 Sudoeste 24 Sudoeste 0 -- -- 31
2020-08-21 13:00:00 30.7 5 Nordeste 19 Nordeste 0 -- -- 22
2020-08-21 12:00:00 30.6 9 Nordeste 18 Nordeste 0 -- -- 15
2020-08-21 11:00:00 31.3 6 Oeste 11 Noroeste 0 -- -- 16
2020-08-21 10:00:00 28.3 0 Calma 9 Nordeste 0 -- -- 14
2020-08-21 09:00:00 26.9 0 Calma 10 Este 0 -- -- 14
2020-08-21 08:00:00 26.5 0 Calma 6 Sur 0 -- -- 14
2020-08-21 07:00:00 26.6 2 Sudeste 7 Sudeste 0 -- -- 14
2020-08-21 06:00:00 25.2 0 Calma 5 Sudeste 0 -- -- 20
2020-08-21 05:00:00 25.1 0 Calma 5 Sur 0 -- -- 24
2020-08-21 04:00:00 25 0 Calma 7 Sur 0 -- -- 24
2020-08-21 03:00:00 24.7 4 Sudoeste 8 Sudeste 0 -- -- 27
2020-08-21 02:00:00 24.1 0 Calma 10 Nordeste 0 -- -- 31
2020-08-21 01:00:00 24.2 6 Este 12 Nordeste 0 -- -- 37
2020-08-21 00:00:00 24.7 5 Este 13 Nordeste 0 -- -- 35